sensor_id;sensor_type;location;lat;lon;timestamp;temperature;humidity
52509;DHT22;38420;53.150;6.370;2022-12-26T00:00:57;7.80;99.90
52509;DHT22;38420;53.150;6.370;2022-12-26T00:03:24;7.90;99.90
52509;DHT22;38420;53.150;6.370;2022-12-26T00:05:49;8.60;99.90
52509;DHT22;38420;53.150;6.370;2022-12-26T00:08:15;8.20;99.90
52509;DHT22;38420;53.150;6.370;2022-12-26T00:10:40;7.80;99.90
52509;DHT22;38420;53.150;6.370;2022-12-26T00:13:06;8.70;99.90
52509;DHT22;38420;53.150;6.370;2022-12-26T00:15:32;8.60;99.90
52509;DHT22;38420;53.150;6.370;2022-12-26T00:17:57;7.90;99.90
52509;DHT22;38420;53.150;6.370;2022-12-26T00:20:23;8.60;99.90
52509;DHT22;38420;53.150;6.370;2022-12-26T00:22:49;7.90;99.90
52509;DHT22;38420;53.150;6.370;2022-12-26T00:25:14;8.10;99.90
52509;DHT22;38420;53.150;6.370;2022-12-26T00:27:40;8.60;99.90
52509;DHT22;38420;53.150;6.370;2022-12-26T00:30:06;8.60;99.90
52509;DHT22;38420;53.150;6.370;2022-12-26T00:32:32;7.90;99.90
52509;DHT22;38420;53.150;6.370;2022-12-26T00:34:57;8.20;99.90
52509;DHT22;38420;53.150;6.370;2022-12-26T00:37:23;8.20;99.90
52509;DHT22;38420;53.150;6.370;2022-12-26T00:39:48;7.80;99.90
52509;DHT22;38420;53.150;6.370;2022-12-26T00:42:14;7.80;99.90
52509;DHT22;38420;53.150;6.370;2022-12-26T00:44:39;8.20;99.90
52509;DHT22;38420;53.150;6.370;2022-12-26T00:47:05;7.90;99.90
52509;DHT22;38420;53.150;6.370;2022-12-26T00:49:31;8.20;99.90
52509;DHT22;38420;53.150;6.370;2022-12-26T00:51:56;7.80;99.90
52509;DHT22;38420;53.150;6.370;2022-12-26T00:54:22;7.70;99.90
52509;DHT22;38420;53.150;6.370;2022-12-26T00:56:47;7.80;99.90
52509;DHT22;38420;53.150;6.370;2022-12-26T00:59:13;7.70;99.90
52509;DHT22;38420;53.150;6.370;2022-12-26T01:01:38;8.50;99.90
52509;DHT22;38420;53.150;6.370;2022-12-26T01:04:04;8.60;99.90
52509;DHT22;38420;53.150;6.370;2022-12-26T01:06:30;8.60;99.90
52509;DHT22;38420;53.150;6.370;2022-12-26T01:08:55;8.60;99.90
52509;DHT22;38420;53.150;6.370;2022-12-26T01:11:21;8.70;99.90
52509;DHT22;38420;53.150;6.370;2022-12-26T01:14:14;8.30;99.90
52509;DHT22;38420;53.150;6.370;2022-12-26T01:16:42;7.90;99.90
52509;DHT22;38420;53.150;6.370;2022-12-26T01:19:08;8.50;99.90
52509;DHT22;38420;53.150;6.370;2022-12-26T01:21:34;8.80;99.90
52509;DHT22;38420;53.150;6.370;2022-12-26T01:23:59;8.60;99.90
52509;DHT22;38420;53.150;6.370;2022-12-26T01:26:25;7.70;99.90
52509;DHT22;38420;53.150;6.370;2022-12-26T01:28:52;8.30;99.90
52509;DHT22;38420;53.150;6.370;2022-12-26T01:31:18;8.40;99.90
52509;DHT22;38420;53.150;6.370;2022-12-26T01:33:45;7.90;99.90
52509;DHT22;38420;53.150;6.370;2022-12-26T01:36:10;8.00;99.90
52509;DHT22;38420;53.150;6.370;2022-12-26T01:38:36;8.50;99.90
52509;DHT22;38420;53.150;6.370;2022-12-26T01:41:02;7.90;99.90
52509;DHT22;38420;53.150;6.370;2022-12-26T01:46:39;8.40;99.90
52509;DHT22;38420;53.150;6.370;2022-12-26T01:51:47;7.80;99.90
52509;DHT22;38420;53.150;6.370;2022-12-26T01:54:14;8.60;99.90
52509;DHT22;38420;53.150;6.370;2022-12-26T01:56:42;8.70;99.90
52509;DHT22;38420;53.150;6.370;2022-12-26T01:59:11;8.50;99.90
52509;DHT22;38420;53.150;6.370;2022-12-26T02:01:41;8.50;99.90
52509;DHT22;38420;53.150;6.370;2022-12-26T02:04:13;7.80;99.90
52509;DHT22;38420;53.150;6.370;2022-12-26T02:06:59;8.20;99.90
52509;DHT22;38420;53.150;6.370;2022-12-26T02:09:26;8.60;99.90
52509;DHT22;38420;53.150;6.370;2022-12-26T02:12:03;8.40;99.90
52509;DHT22;38420;53.150;6.370;2022-12-26T02:14:31;8.50;99.90
52509;DHT22;38420;53.150;6.370;2022-12-26T02:16:57;7.80;99.90
52509;DHT22;38420;53.150;6.370;2022-12-26T02:35:30;8.70;99.90
52509;DHT22;38420;53.150;6.370;2022-12-26T02:41:01;8.20;99.90
52509;DHT22;38420;53.150;6.370;2022-12-26T02:44:20;8.80;99.90
52509;DHT22;38420;53.150;6.370;2022-12-26T02:47:13;8.80;99.90
52509;DHT22;38420;53.150;6.370;2022-12-26T02:55:49;8.10;99.90
52509;DHT22;38420;53.150;6.370;2022-12-26T02:58:58;8.30;99.90
52509;DHT22;38420;53.150;6.370;2022-12-26T03:01:46;8.70;99.90
52509;DHT22;38420;53.150;6.370;2022-12-26T03:04:35;9.00;99.90
52509;DHT22;38420;53.150;6.370;2022-12-26T03:07:28;8.10;99.90
52509;DHT22;38420;53.150;6.370;2022-12-26T03:10:19;8.50;99.90
52509;DHT22;38420;53.150;6.370;2022-12-26T03:13:11;8.20;99.90
52509;DHT22;38420;53.150;6.370;2022-12-26T03:15:58;9.00;99.90
52509;DHT22;38420;53.150;6.370;2022-12-26T03:18:47;9.10;99.90
52509;DHT22;38420;53.150;6.370;2022-12-26T03:21:14;8.10;99.90
52509;DHT22;38420;53.150;6.370;2022-12-26T03:23:42;8.20;99.90
52509;DHT22;38420;53.150;6.370;2022-12-26T03:26:16;8.40;99.90
52509;DHT22;38420;53.150;6.370;2022-12-26T03:29:02;8.90;99.90
52509;DHT22;38420;53.150;6.370;2022-12-26T03:31:46;8.40;99.90
52509;DHT22;38420;53.150;6.370;2022-12-26T03:34:12;8.30;99.90
52509;DHT22;38420;53.150;6.370;2022-12-26T03:37:22;9.00;99.90
52509;DHT22;38420;53.150;6.370;2022-12-26T03:46:16;8.20;99.90
52509;DHT22;38420;53.150;6.370;2022-12-26T03:49:11;8.80;99.90
52509;DHT22;38420;53.150;6.370;2022-12-26T03:52:06;9.20;99.90
52509;DHT22;38420;53.150;6.370;2022-12-26T03:58:08;9.20;99.90
52509;DHT22;38420;53.150;6.370;2022-12-26T04:00:54;8.50;99.90
52509;DHT22;38420;53.150;6.370;2022-12-26T04:03:41;9.20;99.90
52509;DHT22;38420;53.150;6.370;2022-12-26T04:06:31;8.30;99.90
52509;DHT22;38420;53.150;6.370;2022-12-26T04:09:56;9.20;99.90
52509;DHT22;38420;53.150;6.370;2022-12-26T04:12:46;8.30;99.90
52509;DHT22;38420;53.150;6.370;2022-12-26T04:21:44;9.30;99.90
52509;DHT22;38420;53.150;6.370;2022-12-26T04:24:35;8.30;99.90
52509;DHT22;38420;53.150;6.370;2022-12-26T04:27:23;8.40;99.90
52509;DHT22;38420;53.150;6.370;2022-12-26T04:30:08;9.00;99.90
52509;DHT22;38420;53.150;6.370;2022-12-26T04:32:56;8.40;99.90
52509;DHT22;38420;53.150;6.370;2022-12-26T04:35:49;9.10;99.90
52509;DHT22;38420;53.150;6.370;2022-12-26T04:38:41;9.10;99.90
52509;DHT22;38420;53.150;6.370;2022-12-26T04:41:28;9.00;99.90
52509;DHT22;38420;53.150;6.370;2022-12-26T04:44:14;8.30;99.90
52509;DHT22;38420;53.150;6.370;2022-12-26T04:46:45;9.20;99.90
52509;DHT22;38420;53.150;6.370;2022-12-26T04:49:13;8.80;99.90
52509;DHT22;38420;53.150;6.370;2022-12-26T04:51:59;9.30;99.90
52509;DHT22;38420;53.150;6.370;2022-12-26T04:54:25;8.30;99.90
52509;DHT22;38420;53.150;6.370;2022-12-26T04:56:51;9.20;99.90
52509;DHT22;38420;53.150;6.370;2022-12-26T04:59:19;8.30;99.90
52509;DHT22;38420;53.150;6.370;2022-12-26T05:01:45;9.10;99.90
52509;DHT22;38420;53.150;6.370;2022-12-26T05:04:29;9.10;99.90
52509;DHT22;38420;53.150;6.370;2022-12-26T05:07:34;8.90;99.90
52509;DHT22;38420;53.150;6.370;2022-12-26T05:10:22;9.10;99.90
52509;DHT22;38420;53.150;6.370;2022-12-26T05:12:48;8.20;99.90
52509;DHT22;38420;53.150;6.370;2022-12-26T05:15:14;9.10;99.90
52509;DHT22;38420;53.150;6.370;2022-12-26T05:17:40;8.80;99.90
52509;DHT22;38420;53.150;6.370;2022-12-26T05:20:24;8.70;99.90
52509;DHT22;38420;53.150;6.370;2022-12-26T05:23:24;9.00;99.90
52509;DHT22;38420;53.150;6.370;2022-12-26T05:26:18;8.30;99.90
52509;DHT22;38420;53.150;6.370;2022-12-26T05:29:03;9.10;99.90
52509;DHT22;38420;53.150;6.370;2022-12-26T05:31:29;9.00;99.90
52509;DHT22;38420;53.150;6.370;2022-12-26T05:33:55;9.00;99.90
52509;DHT22;38420;53.150;6.370;2022-12-26T05:36:39;8.70;99.90
52509;DHT22;38420;53.150;6.370;2022-12-26T05:39:07;8.20;99.90
52509;DHT22;38420;53.150;6.370;2022-12-26T05:41:34;8.70;99.90
52509;DHT22;38420;53.150;6.370;2022-12-26T05:43:59;8.90;99.90
52509;DHT22;38420;53.150;6.370;2022-12-26T05:46:25;8.80;99.90
52509;DHT22;38420;53.150;6.370;2022-12-26T05:48:51;8.90;99.90
52509;DHT22;38420;53.150;6.370;2022-12-26T05:51:17;8.20;99.90
52509;DHT22;38420;53.150;6.370;2022-12-26T05:53:42;8.70;99.90
52509;DHT22;38420;53.150;6.370;2022-12-26T05:56:13;8.40;99.90
52509;DHT22;38420;53.150;6.370;2022-12-26T05:58:39;8.20;99.90
52509;DHT22;38420;53.150;6.370;2022-12-26T06:01:10;8.80;99.90
52509;DHT22;38420;53.150;6.370;2022-12-26T06:03:37;8.20;99.90
52509;DHT22;38420;53.150;6.370;2022-12-26T06:06:05;8.40;99.90
52509;DHT22;38420;53.150;6.370;2022-12-26T06:08:31;8.20;99.90
52509;DHT22;38420;53.150;6.370;2022-12-26T06:10:56;8.90;99.90
52509;DHT22;38420;53.150;6.370;2022-12-26T06:13:22;8.50;99.90
52509;DHT22;38420;53.150;6.370;2022-12-26T06:15:48;8.70;99.90
52509;DHT22;38420;53.150;6.370;2022-12-26T06:18:13;8.80;99.90
52509;DHT22;38420;53.150;6.370;2022-12-26T06:20:39;8.50;99.90
52509;DHT22;38420;53.150;6.370;2022-12-26T06:23:05;8.30;99.90
52509;DHT22;38420;53.150;6.370;2022-12-26T06:25:31;8.80;99.90
52509;DHT22;38420;53.150;6.370;2022-12-26T06:27:56;8.40;99.90
52509;DHT22;38420;53.150;6.370;2022-12-26T06:30:22;8.80;99.90
52509;DHT22;38420;53.150;6.370;2022-12-26T06:32:47;8.70;99.90
52509;DHT22;38420;53.150;6.370;2022-12-26T06:35:13;8.90;99.90
52509;DHT22;38420;53.150;6.370;2022-12-26T06:37:39;8.40;99.90
52509;DHT22;38420;53.150;6.370;2022-12-26T06:40:05;8.30;99.90
52509;DHT22;38420;53.150;6.370;2022-12-26T06:42:31;8.70;99.90
52509;DHT22;38420;53.150;6.370;2022-12-26T06:44:57;8.60;99.90
52509;DHT22;38420;53.150;6.370;2022-12-26T06:47:22;8.40;99.90
52509;DHT22;38420;53.150;6.370;2022-12-26T06:49:48;8.60;99.90
52509;DHT22;38420;53.150;6.370;2022-12-26T06:52:13;8.90;99.90
52509;DHT22;38420;53.150;6.370;2022-12-26T06:54:39;8.90;99.90
52509;DHT22;38420;53.150;6.370;2022-12-26T06:57:05;9.00;99.90
52509;DHT22;38420;53.150;6.370;2022-12-26T06:59:31;8.60;99.90
52509;DHT22;38420;53.150;6.370;2022-12-26T07:01:57;8.80;99.90
52509;DHT22;38420;53.150;6.370;2022-12-26T07:04:23;8.80;99.90
52509;DHT22;38420;53.150;6.370;2022-12-26T07:06:49;8.80;99.90
52509;DHT22;38420;53.150;6.370;2022-12-26T07:09:16;8.70;99.90
52509;DHT22;38420;53.150;6.370;2022-12-26T07:11:44;9.00;99.90
52509;DHT22;38420;53.150;6.370;2022-12-26T07:14:10;9.10;99.90
52509;DHT22;38420;53.150;6.370;2022-12-26T07:16:37;8.80;99.90
52509;DHT22;38420;53.150;6.370;2022-12-26T07:19:03;9.00;99.90
52509;DHT22;38420;53.150;6.370;2022-12-26T07:21:29;9.10;99.90
52509;DHT22;38420;53.150;6.370;2022-12-26T07:23:55;8.80;99.90
52509;DHT22;38420;53.150;6.370;2022-12-26T07:26:22;8.90;99.90
52509;DHT22;38420;53.150;6.370;2022-12-26T07:28:55;9.10;99.90
52509;DHT22;38420;53.150;6.370;2022-12-26T07:31:22;8.90;99.90
52509;DHT22;38420;53.150;6.370;2022-12-26T07:33:51;9.00;99.90
52509;DHT22;38420;53.150;6.370;2022-12-26T07:36:18;9.80;99.90
52509;DHT22;38420;53.150;6.370;2022-12-26T07:38:44;9.00;99.90
52509;DHT22;38420;53.150;6.370;2022-12-26T07:41:10;8.90;99.90
52509;DHT22;38420;53.150;6.370;2022-12-26T07:43:54;8.90;99.90
52509;DHT22;38420;53.150;6.370;2022-12-26T07:46:20;8.90;99.90
52509;DHT22;38420;53.150;6.370;2022-12-26T07:48:46;8.70;99.90
52509;DHT22;38420;53.150;6.370;2022-12-26T07:51:12;8.70;99.90
52509;DHT22;38420;53.150;6.370;2022-12-26T07:53:37;8.70;99.90
52509;DHT22;38420;53.150;6.370;2022-12-26T07:56:03;8.90;99.90
52509;DHT22;38420;53.150;6.370;2022-12-26T07:58:29;8.90;99.90
52509;DHT22;38420;53.150;6.370;2022-12-26T08:00:55;8.90;99.90
52509;DHT22;38420;53.150;6.370;2022-12-26T08:03:20;8.90;99.90
52509;DHT22;38420;53.150;6.370;2022-12-26T08:05:49;8.90;99.90
52509;DHT22;38420;53.150;6.370;2022-12-26T08:08:16;9.00;99.90
52509;DHT22;38420;53.150;6.370;2022-12-26T08:10:41;8.90;99.90
52509;DHT22;38420;53.150;6.370;2022-12-26T08:13:07;9.10;99.90
52509;DHT22;38420;53.150;6.370;2022-12-26T08:15:33;8.80;99.90
52509;DHT22;38420;53.150;6.370;2022-12-26T08:17:59;8.90;99.90
52509;DHT22;38420;53.150;6.370;2022-12-26T08:20:25;9.10;99.90
52509;DHT22;38420;53.150;6.370;2022-12-26T08:22:50;9.10;99.90
52509;DHT22;38420;53.150;6.370;2022-12-26T08:25:16;9.00;99.90
52509;DHT22;38420;53.150;6.370;2022-12-26T08:27:42;9.00;99.90
52509;DHT22;38420;53.150;6.370;2022-12-26T08:30:08;8.90;99.90
52509;DHT22;38420;53.150;6.370;2022-12-26T08:32:34;9.10;99.90
52509;DHT22;38420;53.150;6.370;2022-12-26T08:34:59;9.00;99.90
52509;DHT22;38420;53.150;6.370;2022-12-26T08:37:25;9.00;99.90
52509;DHT22;38420;53.150;6.370;2022-12-26T08:39:51;9.00;99.90
52509;DHT22;38420;53.150;6.370;2022-12-26T08:42:18;9.10;99.90
52509;DHT22;38420;53.150;6.370;2022-12-26T08:44:44;9.00;99.90
52509;DHT22;38420;53.150;6.370;2022-12-26T08:47:10;9.20;99.90
52509;DHT22;38420;53.150;6.370;2022-12-26T08:49:36;9.00;99.90
52509;DHT22;38420;53.150;6.370;2022-12-26T08:52:02;9.00;99.90
52509;DHT22;38420;53.150;6.370;2022-12-26T08:54:27;9.00;99.90
52509;DHT22;38420;53.150;6.370;2022-12-26T08:56:53;8.90;99.90
52509;DHT22;38420;53.150;6.370;2022-12-26T08:59:19;9.00;99.90
52509;DHT22;38420;53.150;6.370;2022-12-26T09:01:44;8.90;99.90
52509;DHT22;38420;53.150;6.370;2022-12-26T09:04:10;9.00;99.90
52509;DHT22;38420;53.150;6.370;2022-12-26T09:06:37;9.00;99.90
52509;DHT22;38420;53.150;6.370;2022-12-26T09:09:04;8.90;99.90
52509;DHT22;38420;53.150;6.370;2022-12-26T09:11:30;9.10;99.90
52509;DHT22;38420;53.150;6.370;2022-12-26T09:13:58;8.90;99.90
52509;DHT22;38420;53.150;6.370;2022-12-26T09:16:32;8.90;99.90
52509;DHT22;38420;53.150;6.370;2022-12-26T09:19:01;9.00;99.90
52509;DHT22;38420;53.150;6.370;2022-12-26T09:21:28;9.20;99.90
52509;DHT22;38420;53.150;6.370;2022-12-26T09:23:58;8.90;99.90
52509;DHT22;38420;53.150;6.370;2022-12-26T09:26:25;8.90;99.90
52509;DHT22;38420;53.150;6.370;2022-12-26T09:28:50;8.80;99.90
52509;DHT22;38420;53.150;6.370;2022-12-26T09:31:19;9.20;99.90
52509;DHT22;38420;53.150;6.370;2022-12-26T09:33:45;8.80;99.90
52509;DHT22;38420;53.150;6.370;2022-12-26T09:36:17;8.80;99.90
52509;DHT22;38420;53.150;6.370;2022-12-26T09:38:43;8.80;99.90
52509;DHT22;38420;53.150;6.370;2022-12-26T09:44:42;8.70;99.90
52509;DHT22;38420;53.150;6.370;2022-12-26T09:47:15;8.60;99.90
52509;DHT22;38420;53.150;6.370;2022-12-26T09:50:19;8.50;99.90
52509;DHT22;38420;53.150;6.370;2022-12-26T09:52:52;8.10;99.90
52509;DHT22;38420;53.150;6.370;2022-12-26T09:57:50;7.60;99.90
52509;DHT22;38420;53.150;6.370;2022-12-26T10:00:24;7.50;99.90
52509;DHT22;38420;53.150;6.370;2022-12-26T10:02:52;7.50;99.90
52509;DHT22;38420;53.150;6.370;2022-12-26T10:05:22;7.50;99.90
52509;DHT22;38420;53.150;6.370;2022-12-26T10:08:01;7.40;99.90
52509;DHT22;38420;53.150;6.370;2022-12-26T10:10:53;7.40;99.90
52509;DHT22;38420;53.150;6.370;2022-12-26T10:13:33;7.40;99.90
52509;DHT22;38420;53.150;6.370;2022-12-26T10:16:12;7.30;99.90
52509;DHT22;38420;53.150;6.370;2022-12-26T10:21:30;7.50;99.90
52509;DHT22;38420;53.150;6.370;2022-12-26T10:24:10;7.50;99.90
52509;DHT22;38420;53.150;6.370;2022-12-26T10:26:40;7.50;99.90
52509;DHT22;38420;53.150;6.370;2022-12-26T10:29:11;7.50;99.90
52509;DHT22;38420;53.150;6.370;2022-12-26T10:31:55;7.50;99.90
52509;DHT22;38420;53.150;6.370;2022-12-26T10:34:29;7.50;99.90
52509;DHT22;38420;53.150;6.370;2022-12-26T10:37:29;7.50;99.90
52509;DHT22;38420;53.150;6.370;2022-12-26T10:39:58;7.50;99.90
52509;DHT22;38420;53.150;6.370;2022-12-26T10:42:40;7.40;99.90
52509;DHT22;38420;53.150;6.370;2022-12-26T10:45:16;7.50;99.90
52509;DHT22;38420;53.150;6.370;2022-12-26T10:47:51;7.30;99.90
52509;DHT22;38420;53.150;6.370;2022-12-26T10:50:23;7.30;99.90
52509;DHT22;38420;53.150;6.370;2022-12-26T10:52:50;7.00;99.90
52509;DHT22;38420;53.150;6.370;2022-12-26T10:55:18;7.10;99.90
52509;DHT22;38420;53.150;6.370;2022-12-26T10:57:49;7.00;99.90
52509;DHT22;38420;53.150;6.370;2022-12-26T11:00:22;7.10;99.90
52509;DHT22;38420;53.150;6.370;2022-12-26T11:03:08;7.00;99.90
52509;DHT22;38420;53.150;6.370;2022-12-26T11:05:37;7.10;99.90
52509;DHT22;38420;53.150;6.370;2022-12-26T11:10:46;7.10;99.90
52509;DHT22;38420;53.150;6.370;2022-12-26T11:13:20;7.10;99.90
52509;DHT22;38420;53.150;6.370;2022-12-26T11:15:49;7.00;99.90
52509;DHT22;38420;53.150;6.370;2022-12-26T11:18:19;7.00;99.90
52509;DHT22;38420;53.150;6.370;2022-12-26T11:20:47;7.00;99.90
52509;DHT22;38420;53.150;6.370;2022-12-26T11:23:29;7.10;99.90
52509;DHT22;38420;53.150;6.370;2022-12-26T11:25:58;7.10;99.90
52509;DHT22;38420;53.150;6.370;2022-12-26T11:30:50;7.10;99.90
52509;DHT22;38420;53.150;6.370;2022-12-26T11:33:45;7.10;99.90
52509;DHT22;38420;53.150;6.370;2022-12-26T11:36:19;7.00;99.90
52509;DHT22;38420;53.150;6.370;2022-12-26T11:38:57;7.10;99.90
52509;DHT22;38420;53.150;6.370;2022-12-26T11:44:10;7.10;99.90
52509;DHT22;38420;53.150;6.370;2022-12-26T11:46:50;7.00;99.90
52509;DHT22;38420;53.150;6.370;2022-12-26T11:49:23;7.10;99.90
52509;DHT22;38420;53.150;6.370;2022-12-26T11:51:50;7.10;99.90
52509;DHT22;38420;53.150;6.370;2022-12-26T11:54:32;7.00;99.90
52509;DHT22;38420;53.150;6.370;2022-12-26T11:57:11;7.10;99.90
52509;DHT22;38420;53.150;6.370;2022-12-26T11:59:38;7.10;99.90
52509;DHT22;38420;53.150;6.370;2022-12-26T12:02:26;7.10;99.90
52509;DHT22;38420;53.150;6.370;2022-12-26T12:04:56;7.10;99.90
52509;DHT22;38420;53.150;6.370;2022-12-26T12:07:55;7.00;99.90
52509;DHT22;38420;53.150;6.370;2022-12-26T12:11:04;7.00;99.90
52509;DHT22;38420;53.150;6.370;2022-12-26T12:46:16;7.50;99.90
52509;DHT22;38420;53.150;6.370;2022-12-26T12:49:05;7.60;99.90
52509;DHT22;38420;53.150;6.370;2022-12-26T12:51:49;7.60;99.90
52509;DHT22;38420;53.150;6.370;2022-12-26T12:54:31;7.60;99.90
52509;DHT22;38420;53.150;6.370;2022-12-26T12:57:32;7.70;99.90
52509;DHT22;38420;53.150;6.370;2022-12-26T13:00:24;7.70;99.90
52509;DHT22;38420;53.150;6.370;2022-12-26T13:03:11;7.70;99.90
52509;DHT22;38420;53.150;6.370;2022-12-26T13:05:54;7.60;99.90
52509;DHT22;38420;53.150;6.370;2022-12-26T13:08:30;7.40;99.90
52509;DHT22;38420;53.150;6.370;2022-12-26T13:11:15;7.30;99.90
52509;DHT22;38420;53.150;6.370;2022-12-26T13:13:50;7.30;99.90
52509;DHT22;38420;53.150;6.370;2022-12-26T13:16:20;7.50;99.90
52509;DHT22;38420;53.150;6.370;2022-12-26T13:18:53;7.50;99.90
52509;DHT22;38420;53.150;6.370;2022-12-26T13:21:21;7.60;99.90
52509;DHT22;38420;53.150;6.370;2022-12-26T13:23:57;7.70;99.90
52509;DHT22;38420;53.150;6.370;2022-12-26T13:26:47;7.90;99.90
52509;DHT22;38420;53.150;6.370;2022-12-26T13:29:25;7.90;99.90
52509;DHT22;38420;53.150;6.370;2022-12-26T13:31:53;7.90;99.90
52509;DHT22;38420;53.150;6.370;2022-12-26T13:34:20;7.80;99.90
52509;DHT22;38420;53.150;6.370;2022-12-26T13:36:50;7.60;99.90
52509;DHT22;38420;53.150;6.370;2022-12-26T13:42:16;7.30;99.90
52509;DHT22;38420;53.150;6.370;2022-12-26T13:48:45;7.00;99.90
52509;DHT22;38420;53.150;6.370;2022-12-26T13:50:51;6.80;99.90
52509;DHT22;38420;53.150;6.370;2022-12-26T13:55:56;6.80;99.90
52509;DHT22;38420;53.150;6.370;2022-12-26T14:01:49;6.80;99.90
52509;DHT22;38420;53.150;6.370;2022-12-26T14:10:12;6.60;99.90
52509;DHT22;38420;53.150;6.370;2022-12-26T14:15:56;6.60;99.90
52509;DHT22;38420;53.150;6.370;2022-12-26T14:18:52;6.50;99.90
52509;DHT22;38420;53.150;6.370;2022-12-26T14:21:30;6.50;99.90
52509;DHT22;38420;53.150;6.370;2022-12-26T14:29:39;6.30;99.90
52509;DHT22;38420;53.150;6.370;2022-12-26T14:32:37;6.20;99.90
52509;DHT22;38420;53.150;6.370;2022-12-26T14:38:37;6.20;99.90
52509;DHT22;38420;53.150;6.370;2022-12-26T14:41:11;6.10;99.90
52509;DHT22;38420;53.150;6.370;2022-12-26T14:44:39;6.10;99.90
52509;DHT22;38420;53.150;6.370;2022-12-26T14:46:59;6.10;99.90
52509;DHT22;38420;53.150;6.370;2022-12-26T14:54:40;6.00;99.90
52509;DHT22;38420;53.150;6.370;2022-12-26T14:57:44;6.00;99.90
52509;DHT22;38420;53.150;6.370;2022-12-26T15:05:37;5.80;99.90
52509;DHT22;38420;53.150;6.370;2022-12-26T15:13:57;5.70;99.90
52509;DHT22;38420;53.150;6.370;2022-12-26T15:17:17;5.70;99.90
52509;DHT22;38420;53.150;6.370;2022-12-26T15:20:26;5.70;99.90
52509;DHT22;38420;53.150;6.370;2022-12-26T15:23:19;5.70;99.90
52509;DHT22;38420;53.150;6.370;2022-12-26T15:26:24;5.60;99.90
52509;DHT22;38420;53.150;6.370;2022-12-26T15:29:24;5.60;99.90
52509;DHT22;38420;53.150;6.370;2022-12-26T15:32:12;5.50;99.90
52509;DHT22;38420;53.150;6.370;2022-12-26T15:34:56;5.50;99.90
52509;DHT22;38420;53.150;6.370;2022-12-26T15:40:29;5.40;99.90
52509;DHT22;38420;53.150;6.370;2022-12-26T15:51:19;5.20;99.90
52509;DHT22;38420;53.150;6.370;2022-12-26T16:01:55;5.00;99.90
52509;DHT22;38420;53.150;6.370;2022-12-26T16:04:39;5.00;99.90
52509;DHT22;38420;53.150;6.370;2022-12-26T16:07:34;5.00;99.90
52509;DHT22;38420;53.150;6.370;2022-12-26T16:10:14;4.90;99.90
52509;DHT22;38420;53.150;6.370;2022-12-26T16:13:05;4.80;99.90
52509;DHT22;38420;53.150;6.370;2022-12-26T16:15:54;4.80;99.90
52509;DHT22;38420;53.150;6.370;2022-12-26T16:18:29;4.80;99.90
52509;DHT22;38420;53.150;6.370;2022-12-26T16:20:58;4.70;99.90
52509;DHT22;38420;53.150;6.370;2022-12-26T16:23:44;4.70;99.90
52509;DHT22;38420;53.150;6.370;2022-12-26T16:26:24;4.60;99.90
52509;DHT22;38420;53.150;6.370;2022-12-26T16:28:51;4.60;99.90
52509;DHT22;38420;53.150;6.370;2022-12-26T16:31:20;4.60;99.90
52509;DHT22;38420;53.150;6.370;2022-12-26T16:33:49;4.60;99.90
52509;DHT22;38420;53.150;6.370;2022-12-26T16:36:21;4.60;99.90
52509;DHT22;38420;53.150;6.370;2022-12-26T16:38:47;4.60;99.90
52509;DHT22;38420;53.150;6.370;2022-12-26T16:46:52;4.70;99.90
52509;DHT22;38420;53.150;6.370;2022-12-26T16:49:18;4.80;99.90
52509;DHT22;38420;53.150;6.370;2022-12-26T16:51:47;4.70;99.90
52509;DHT22;38420;53.150;6.370;2022-12-26T16:56:51;4.70;99.90
52509;DHT22;38420;53.150;6.370;2022-12-26T16:59:20;4.70;99.90
52509;DHT22;38420;53.150;6.370;2022-12-26T17:01:57;4.60;99.90
52509;DHT22;38420;53.150;6.370;2022-12-26T17:04:26;4.60;99.90
52509;DHT22;38420;53.150;6.370;2022-12-26T17:09:23;4.70;99.90
52509;DHT22;38420;53.150;6.370;2022-12-26T17:12:05;4.60;99.90
52509;DHT22;38420;53.150;6.370;2022-12-26T17:14:33;4.60;99.90
52509;DHT22;38420;53.150;6.370;2022-12-26T17:19:50;4.60;99.90
52509;DHT22;38420;53.150;6.370;2022-12-26T17:33:17;4.40;99.90
52509;DHT22;38420;53.150;6.370;2022-12-26T17:35:49;4.40;99.90
52509;DHT22;38420;53.150;6.370;2022-12-26T17:38:21;4.40;99.90
52509;DHT22;38420;53.150;6.370;2022-12-26T17:40:49;4.40;99.90
52509;DHT22;38420;53.150;6.370;2022-12-26T17:45:45;4.30;99.90
52509;DHT22;38420;53.150;6.370;2022-12-26T17:48:11;4.30;99.90
52509;DHT22;38420;53.150;6.370;2022-12-26T17:50:43;4.20;99.90
52509;DHT22;38420;53.150;6.370;2022-12-26T17:55:41;4.10;99.90
52509;DHT22;38420;53.150;6.370;2022-12-26T17:58:11;4.10;99.90
52509;DHT22;38420;53.150;6.370;2022-12-26T18:00:38;4.10;99.90
52509;DHT22;38420;53.150;6.370;2022-12-26T18:03:03;4.10;99.90
52509;DHT22;38420;53.150;6.370;2022-12-26T18:05:29;4.10;99.90
52509;DHT22;38420;53.150;6.370;2022-12-26T18:07:55;4.00;99.90
52509;DHT22;38420;53.150;6.370;2022-12-26T18:10:26;4.10;99.90
52509;DHT22;38420;53.150;6.370;2022-12-26T18:12:56;4.00;99.90
52509;DHT22;38420;53.150;6.370;2022-12-26T18:15:22;4.00;99.90
52509;DHT22;38420;53.150;6.370;2022-12-26T18:17:49;4.00;99.90
52509;DHT22;38420;53.150;6.370;2022-12-26T18:20:21;4.00;99.90
52509;DHT22;38420;53.150;6.370;2022-12-26T18:22:47;4.00;99.90
52509;DHT22;38420;53.150;6.370;2022-12-26T18:25:14;4.00;99.90
52509;DHT22;38420;53.150;6.370;2022-12-26T18:27:40;4.00;99.90
52509;DHT22;38420;53.150;6.370;2022-12-26T18:30:14;4.10;99.90
52509;DHT22;38420;53.150;6.370;2022-12-26T18:32:41;4.00;99.90
52509;DHT22;38420;53.150;6.370;2022-12-26T18:35:06;4.00;99.90
52509;DHT22;38420;53.150;6.370;2022-12-26T18:37:32;4.00;99.90
52509;DHT22;38420;53.150;6.370;2022-12-26T18:39:58;4.00;99.90
52509;DHT22;38420;53.150;6.370;2022-12-26T18:42:24;4.00;99.90
52509;DHT22;38420;53.150;6.370;2022-12-26T18:44:51;3.90;99.90
52509;DHT22;38420;53.150;6.370;2022-12-26T18:47:19;4.00;99.90
52509;DHT22;38420;53.150;6.370;2022-12-26T18:49:45;3.90;99.90
52509;DHT22;38420;53.150;6.370;2022-12-26T18:52:12;3.90;99.90
52509;DHT22;38420;53.150;6.370;2022-12-26T18:54:38;3.90;99.90
52509;DHT22;38420;53.150;6.370;2022-12-26T18:57:05;3.90;99.90
52509;DHT22;38420;53.150;6.370;2022-12-26T18:59:31;3.90;99.90
52509;DHT22;38420;53.150;6.370;2022-12-26T19:01:57;3.90;99.90
52509;DHT22;38420;53.150;6.370;2022-12-26T19:04:22;3.90;99.90
52509;DHT22;38420;53.150;6.370;2022-12-26T19:06:48;3.80;99.90
52509;DHT22;38420;53.150;6.370;2022-12-26T19:09:14;3.80;99.90
52509;DHT22;38420;53.150;6.370;2022-12-26T19:11:41;3.80;99.90
52509;DHT22;38420;53.150;6.370;2022-12-26T19:14:07;3.80;99.90
52509;DHT22;38420;53.150;6.370;2022-12-26T19:16:36;3.90;99.90
52509;DHT22;38420;53.150;6.370;2022-12-26T19:19:02;3.90;99.90
52509;DHT22;38420;53.150;6.370;2022-12-26T19:21:28;3.90;99.90
52509;DHT22;38420;53.150;6.370;2022-12-26T19:23:54;3.90;99.90
52509;DHT22;38420;53.150;6.370;2022-12-26T19:26:19;4.00;99.90
52509;DHT22;38420;53.150;6.370;2022-12-26T19:28:53;3.90;99.90
52509;DHT22;38420;53.150;6.370;2022-12-26T19:31:20;4.00;99.90
52509;DHT22;38420;53.150;6.370;2022-12-26T19:33:46;4.00;99.90